createdAt,value
2023-02-07T00:01:51.264Z,100685.10
2023-02-07T00:04:19.377Z,100686.60
2023-02-07T00:06:47.148Z,100689.57
2023-02-07T00:09:15.000Z,100681.48
2023-02-07T00:11:43.495Z,100684.65
2023-02-07T00:14:12.174Z,100681.62
2023-02-07T00:16:41.463Z,100685.86
2023-02-07T00:19:09.405Z,100682.99
2023-02-07T00:21:37.480Z,100680.41
2023-02-07T00:24:05.927Z,100673.15
2023-02-07T00:26:33.886Z,100682.81
2023-02-07T00:29:01.743Z,100681.38
2023-02-07T00:31:31.016Z,100679.19
2023-02-07T00:34:02.073Z,100680.83
2023-02-07T00:36:32.345Z,100679.42
2023-02-07T00:39:01.292Z,100686.19
2023-02-07T00:41:29.802Z,100686.52
2023-02-07T00:43:57.612Z,100686.95
2023-02-07T00:46:26.137Z,100689.77
2023-02-07T00:49:16.163Z,100686.98
2023-02-07T00:51:44.048Z,100685.39
2023-02-07T00:54:11.932Z,100666.83
2023-02-07T00:56:40.394Z,100677.16
2023-02-07T00:59:08.314Z,100673.58
2023-02-07T01:01:36.587Z,100670.35
2023-02-07T01:04:04.603Z,100663.89
2023-02-07T01:06:34.448Z,100665.54
2023-02-07T01:09:04.081Z,100659.27
2023-02-07T01:11:32.455Z,100643.47
2023-02-07T01:14:01.238Z,100641.34
2023-02-07T01:16:34.087Z,100639.70
2023-02-07T01:19:07.246Z,100643.50
2023-02-07T01:21:36.014Z,100639.54
2023-02-07T01:24:05.769Z,100638.10
2023-02-07T01:26:36.282Z,100632.81
2023-02-07T01:29:04.684Z,100626.58
2023-02-07T01:31:32.867Z,100629.13
2023-02-07T01:34:04.933Z,100622.75
2023-02-07T01:36:33.359Z,100625.44
2023-02-07T01:39:01.234Z,100617.55
2023-02-07T01:41:29.314Z,100614.75
2023-02-07T01:43:57.151Z,100619.14
2023-02-07T01:46:26.019Z,100613.59
2023-02-07T01:48:55.957Z,100616.63
2023-02-07T01:51:24.606Z,100623.39
2023-02-07T01:53:55.490Z,100627.20
2023-02-07T01:56:31.621Z,100627.64
2023-02-07T01:59:06.328Z,100633.70
2023-02-07T02:01:35.210Z,100631.75
2023-02-07T02:04:03.508Z,100639.40
2023-02-07T02:06:32.842Z,100638.45
2023-02-07T02:09:02.129Z,100635.27
2023-02-07T02:11:34.925Z,100633.67
2023-02-07T02:14:02.769Z,100636.69
2023-02-07T02:16:38.366Z,100626.55
2023-02-07T02:19:09.453Z,100625.69
2023-02-07T02:21:56.314Z,100624.88
2023-02-07T02:24:42.674Z,100622.16
2023-02-07T02:27:33.968Z,100634.18
2023-02-07T02:30:22.747Z,100642.67
2023-02-07T02:33:12.292Z,100641.11
2023-02-07T02:35:46.239Z,100641.95
2023-02-07T02:38:21.885Z,100637.13
2023-02-07T02:40:49.742Z,100633.90
2023-02-07T02:43:34.908Z,100631.56
2023-02-07T02:46:07.117Z,100627.46
2023-02-07T02:48:35.600Z,100621.69
2023-02-07T02:51:04.831Z,100624.91
2023-02-07T02:53:32.899Z,100627.67
2023-02-07T02:56:14.674Z,100629.77
2023-02-07T02:58:42.480Z,100634.59
2023-02-07T03:01:22.668Z,100634.65
2023-02-07T03:03:53.672Z,100634.10
2023-02-07T03:06:28.009Z,100634.68
2023-02-07T03:09:15.594Z,100632.06
2023-02-07T03:11:55.742Z,100637.48
2023-02-07T03:14:42.649Z,100630.77
2023-02-07T03:17:29.303Z,100631.20
2023-02-07T03:20:14.805Z,100628.49
2023-02-07T03:22:44.588Z,100633.54
2023-02-07T03:25:15.025Z,100635.08
2023-02-07T03:27:44.668Z,100643.40
2023-02-07T03:30:53.171Z,100651.41
2023-02-07T03:33:21.796Z,100656.25
2023-02-07T03:35:49.624Z,100651.80
2023-02-07T03:38:17.502Z,100647.06
2023-02-07T03:40:53.308Z,100645.02
2023-02-07T03:43:24.726Z,100647.16
2023-02-07T03:45:52.614Z,100643.74
2023-02-07T03:48:20.528Z,100642.88
2023-02-07T03:50:50.041Z,100650.20
2023-02-07T03:53:18.371Z,100651.45
2023-02-07T03:55:46.374Z,100655.36
2023-02-07T03:58:14.188Z,100661.34
2023-02-07T04:00:42.049Z,100659.43
2023-02-07T04:03:09.908Z,100657.48
2023-02-07T04:05:37.945Z,100661.85
2023-02-07T04:08:06.036Z,100665.02
2023-02-07T04:10:33.889Z,100665.10
2023-02-07T04:13:01.864Z,100659.90
2023-02-07T04:15:30.111Z,100661.79
2023-02-07T04:17:58.007Z,100653.94
2023-02-07T04:20:25.782Z,100650.27
2023-02-07T04:22:53.666Z,100650.92
2023-02-07T04:25:21.522Z,100657.29
2023-02-07T04:27:52.196Z,100662.95
2023-02-07T04:30:20.147Z,100657.75
2023-02-07T04:32:48.132Z,100654.66
2023-02-07T04:35:16.075Z,100654.33
2023-02-07T04:37:44.277Z,100649.69
2023-02-07T04:40:12.117Z,100652.21
2023-02-07T04:42:40.570Z,100645.05
2023-02-07T04:45:09.661Z,100637.45
2023-02-07T04:47:37.536Z,100633.29
2023-02-07T04:50:05.362Z,100645.12
2023-02-07T04:52:53.476Z,100650.92
2023-02-07T04:55:22.905Z,100654.96
2023-02-07T04:57:50.721Z,100657.56
2023-02-07T05:00:18.698Z,100661.10
2023-02-07T05:02:46.517Z,100660.56
2023-02-07T05:05:14.552Z,100651.79
2023-02-07T05:07:42.339Z,100647.33
2023-02-07T05:10:10.284Z,100650.05
2023-02-07T05:12:38.103Z,100651.71
2023-02-07T05:15:06.332Z,100655.85
2023-02-07T05:17:35.254Z,100653.89
2023-02-07T05:20:03.421Z,100652.16
2023-02-07T05:22:52.038Z,100659.86
2023-02-07T05:25:39.885Z,100659.27
2023-02-07T05:28:08.042Z,100654.83
2023-02-07T05:30:36.004Z,100660.00
2023-02-07T05:33:04.057Z,100654.09
2023-02-07T05:35:40.226Z,100658.64
2023-02-07T05:38:09.719Z,100660.56
2023-02-07T05:40:38.463Z,100660.44
2023-02-07T05:43:06.344Z,100653.19
2023-02-07T05:45:34.382Z,100656.75
2023-02-07T05:48:02.222Z,100662.73
2023-02-07T05:50:30.470Z,100657.19
2023-02-07T05:53:06.845Z,100669.44
2023-02-07T05:55:34.960Z,100669.71
2023-02-07T05:58:23.175Z,100666.64
2023-02-07T06:00:51.120Z,100667.88
2023-02-07T06:03:19.003Z,100670.47
2023-02-07T06:05:46.915Z,100669.98
2023-02-07T06:08:14.694Z,100671.69
2023-02-07T06:10:42.860Z,100669.11
2023-02-07T06:13:31.598Z,100669.98
2023-02-07T06:15:59.512Z,100673.85
2023-02-07T06:18:27.357Z,100678.50
2023-02-07T06:20:55.236Z,100686.48
2023-02-07T06:23:23.208Z,100693.58
2023-02-07T06:25:51.082Z,100690.52
2023-02-07T06:28:19.018Z,100691.98
2023-02-07T06:30:47.053Z,100683.95
2023-02-07T06:33:15.057Z,100682.30
2023-02-07T06:35:47.369Z,100683.23
2023-02-07T06:38:17.078Z,100687.31
2023-02-07T06:40:45.606Z,100692.25
2023-02-07T06:43:13.792Z,100704.01
2023-02-07T06:45:41.952Z,100710.91
2023-02-07T06:48:10.271Z,100706.71
2023-02-07T06:50:38.383Z,100704.86
2023-02-07T06:53:06.296Z,100699.45
2023-02-07T06:55:40.399Z,100700.80
2023-02-07T06:58:08.595Z,100704.79
2023-02-07T07:00:36.889Z,100705.84
2023-02-07T07:03:05.323Z,100712.89
2023-02-07T07:05:33.590Z,100719.90
2023-02-07T07:08:01.587Z,100724.45
2023-02-07T07:10:29.908Z,100730.36
2023-02-07T07:12:57.894Z,100723.30
2023-02-07T07:15:25.827Z,100727.15
2023-02-07T07:17:54.058Z,100726.05
2023-02-07T07:20:21.992Z,100723.88
2023-02-07T07:22:49.958Z,100715.08
2023-02-07T07:25:18.051Z,100712.33
2023-02-07T07:27:46.232Z,100711.73
2023-02-07T07:30:14.540Z,100708.66
2023-02-07T07:32:42.634Z,100700.75
2023-02-07T07:35:11.565Z,100696.79
2023-02-07T07:37:40.679Z,100696.95
2023-02-07T07:40:09.563Z,100700.78
2023-02-07T07:42:37.492Z,100699.68
2023-02-07T07:45:15.150Z,100699.82
2023-02-07T07:47:43.056Z,100689.93
2023-02-07T07:50:11.023Z,100697.23
2023-02-07T07:52:39.025Z,100699.98
2023-02-07T07:55:07.461Z,100701.92
2023-02-07T07:57:36.552Z,100693.98
2023-02-07T08:00:06.587Z,100699.73
2023-02-07T08:02:42.793Z,100699.30
2023-02-07T08:05:13.604Z,100699.33
2023-02-07T08:07:41.769Z,100695.11
2023-02-07T08:10:10.411Z,100697.35
2023-02-07T08:12:38.532Z,100703.70
2023-02-07T08:15:09.544Z,100699.52
2023-02-07T08:17:37.641Z,100699.67
2023-02-07T08:20:06.127Z,100701.75
2023-02-07T08:22:34.122Z,100702.66
2023-02-07T08:25:02.125Z,100696.98
2023-02-07T08:27:30.180Z,100689.35
2023-02-07T08:29:58.420Z,100697.50
2023-02-07T08:32:26.386Z,100699.93
2023-02-07T08:34:54.448Z,100697.44
2023-02-07T08:37:23.335Z,100700.66
2023-02-07T08:39:53.056Z,100700.89
2023-02-07T08:42:21.111Z,100693.34
2023-02-07T08:44:49.815Z,100684.55
2023-02-07T08:47:18.874Z,100688.66
2023-02-07T08:49:47.024Z,100693.40
2023-02-07T08:52:15.002Z,100698.13
2023-02-07T08:54:43.634Z,100698.60
2023-02-07T08:57:11.589Z,100696.91
2023-02-07T08:59:39.762Z,100694.17
2023-02-07T09:02:07.962Z,100694.89
2023-02-07T09:04:36.523Z,100694.97
2023-02-07T09:07:05.221Z,100694.40
2023-02-07T09:09:33.066Z,100696.06
2023-02-07T09:12:01.081Z,100692.90
2023-02-07T09:14:29.226Z,100690.77
2023-02-07T09:16:57.244Z,100690.67
2023-02-07T09:19:25.346Z,100684.04
2023-02-07T09:21:53.258Z,100685.98
2023-02-07T09:24:21.947Z,100687.38
2023-02-07T09:26:50.207Z,100685.38
2023-02-07T09:29:18.552Z,100684.70
2023-02-07T09:31:47.183Z,100682.92
2023-02-07T09:34:15.235Z,100683.98
2023-02-07T09:36:43.622Z,100687.44
2023-02-07T09:39:11.743Z,100681.98
2023-02-07T09:41:59.071Z,100682.39
2023-02-07T09:44:42.458Z,100680.09
2023-02-07T09:47:23.584Z,100673.00
2023-02-07T09:49:57.659Z,100673.30
2023-02-07T09:52:47.085Z,100672.55
2023-02-07T09:55:25.675Z,100669.03
2023-02-07T09:58:08.559Z,100667.49
2023-02-07T10:00:38.003Z,100666.04
2023-02-07T10:03:18.814Z,100663.30
2023-02-07T10:06:01.417Z,100660.63
2023-02-07T10:08:40.940Z,100661.21
2023-02-07T10:11:37.772Z,100657.61
2023-02-07T10:14:12.582Z,100663.85
2023-02-07T10:16:51.008Z,100659.36
2023-02-07T10:19:33.880Z,100652.05
2023-02-07T10:22:07.818Z,100646.92
2023-02-07T10:24:55.222Z,100643.04
2023-02-07T10:27:31.473Z,100645.81
2023-02-07T10:29:59.441Z,100640.77
2023-02-07T10:32:32.326Z,100637.45
2023-02-07T10:35:05.891Z,100636.25
2023-02-07T10:37:38.501Z,100633.52
2023-02-07T10:40:26.463Z,100631.88
2023-02-07T10:43:05.390Z,100627.24
2023-02-07T10:45:33.558Z,100627.33
2023-02-07T10:48:01.601Z,100625.09
2023-02-07T10:50:30.929Z,100625.29
2023-02-07T10:53:00.058Z,100623.81
2023-02-07T10:55:41.552Z,100629.05
2023-02-07T10:58:24.267Z,100628.46
2023-02-07T11:02:01.576Z,100628.08
2023-02-07T11:04:43.966Z,100630.46
2023-02-07T11:07:15.800Z,100627.58
2023-02-07T11:09:43.769Z,100618.67
2023-02-07T11:12:21.736Z,100618.94
2023-02-07T11:15:08.192Z,100615.28
2023-02-07T11:17:36.903Z,100617.34
2023-02-07T11:20:06.930Z,100621.02
2023-02-07T11:22:35.273Z,100616.19
2023-02-07T11:25:06.118Z,100619.20
2023-02-07T11:27:42.792Z,100619.66
2023-02-07T11:30:20.681Z,100624.39
2023-02-07T11:33:05.914Z,100630.48
2023-02-07T11:35:34.029Z,100629.75
2023-02-07T11:38:15.655Z,100631.64
2023-02-07T11:40:43.545Z,100631.04
2023-02-07T11:43:18.491Z,100628.07
2023-02-07T11:45:50.226Z,100632.23
2023-02-07T11:48:28.144Z,100633.95
2023-02-07T11:51:03.428Z,100633.11
2023-02-07T11:53:41.424Z,100635.14
2023-02-07T11:56:25.310Z,100636.00
2023-02-07T11:58:55.643Z,100633.42
2023-02-07T12:01:29.970Z,100638.13
2023-02-07T12:04:01.969Z,100636.26
2023-02-07T12:06:44.162Z,100634.40
2023-02-07T12:09:24.301Z,100632.81
2023-02-07T12:11:56.578Z,100634.91
2023-02-07T12:14:41.352Z,100632.34
2023-02-07T12:17:18.262Z,100635.91
2023-02-07T12:19:58.189Z,100632.16
2023-02-07T12:22:36.469Z,100628.73
2023-02-07T12:25:20.498Z,100628.59
2023-02-07T12:27:53.143Z,100621.96
2023-02-07T12:30:26.448Z,100617.73
2023-02-07T12:33:03.648Z,100616.55
2023-02-07T12:35:56.875Z,100609.30
2023-02-07T12:38:30.047Z,100604.08
2023-02-07T12:41:02.911Z,100606.54
2023-02-07T12:43:33.946Z,100609.94
2023-02-07T12:46:02.130Z,100611.96
2023-02-07T12:49:07.676Z,100605.48
2023-02-07T12:51:42.172Z,100601.88
2023-02-07T12:54:24.681Z,100598.59
2023-02-07T12:57:15.978Z,100594.14
2023-02-07T13:00:05.631Z,100589.45
2023-02-07T13:02:43.538Z,100590.67
2023-02-07T13:05:37.301Z,100589.03
2023-02-07T13:08:27.079Z,100591.41
2023-02-07T13:11:21.894Z,100590.20
2023-02-07T13:14:08.867Z,100586.64
2023-02-07T13:16:49.111Z,100583.44
2023-02-07T13:19:25.357Z,100575.96
2023-02-07T13:22:05.847Z,100584.26
2023-02-07T13:24:37.744Z,100586.35
2023-02-07T13:27:11.382Z,100585.36
2023-02-07T13:29:41.179Z,100586.23
2023-02-07T13:32:16.951Z,100589.48
2023-02-07T13:34:56.757Z,100589.98
2023-02-07T13:37:54.144Z,100597.66
2023-02-07T13:40:49.535Z,100600.61
2023-02-07T13:43:37.065Z,100600.98
2023-02-07T13:46:35.901Z,100598.02
2023-02-07T13:49:39.655Z,100603.44
2023-02-07T13:52:47.791Z,100602.27
2023-02-07T13:55:18.748Z,100596.38
2023-02-07T13:58:05.708Z,100600.36
2023-02-07T14:00:58.861Z,100597.18
2023-02-07T14:03:32.800Z,100597.18
2023-02-07T14:06:20.708Z,100597.45
2023-02-07T14:09:05.339Z,100594.72
2023-02-07T14:11:39.235Z,100591.44
2023-02-07T14:14:28.721Z,100592.48
2023-02-07T14:16:59.739Z,100592.63
2023-02-07T14:19:43.394Z,100596.11
2023-02-07T14:22:42.448Z,100593.45
2023-02-07T14:25:11.035Z,100589.06
2023-02-07T14:28:03.589Z,100586.02
2023-02-07T14:30:56.202Z,100586.58
2023-02-07T14:33:34.433Z,100579.30
2023-02-07T14:36:04.700Z,100577.77
2023-02-07T14:38:42.027Z,100570.55
2023-02-07T14:41:13.906Z,100566.73
2023-02-07T14:44:07.542Z,100569.33
2023-02-07T14:46:49.220Z,100570.65
2023-02-07T14:49:26.284Z,100566.89
2023-02-07T14:52:01.853Z,100566.25
2023-02-07T14:54:38.765Z,100564.23
2023-02-07T14:57:22.260Z,100565.56
2023-02-07T15:00:05.230Z,100565.65
2023-02-07T15:02:52.608Z,100567.34
2023-02-07T15:05:26.172Z,100564.15
2023-02-07T15:08:01.876Z,100565.33
2023-02-07T15:10:34.600Z,100568.74
2023-02-07T15:13:03.382Z,100566.54
2023-02-07T15:15:47.962Z,100572.59
2023-02-07T15:18:18.952Z,100577.02
2023-02-07T15:20:57.580Z,100579.26
2023-02-07T15:23:29.241Z,100585.16
2023-02-07T15:26:01.077Z,100590.09
2023-02-07T15:28:32.111Z,100597.15
2023-02-07T15:31:05.020Z,100600.27
2023-02-07T15:33:40.220Z,100606.18
2023-02-07T15:36:37.713Z,100610.55
2023-02-07T15:39:12.925Z,100615.34
2023-02-07T15:41:41.701Z,100618.52
2023-02-07T15:44:23.157Z,100617.76
2023-02-07T15:46:55.730Z,100619.71
2023-02-07T15:49:41.650Z,100620.91
2023-02-07T15:52:31.788Z,100630.16
2023-02-07T15:55:05.384Z,100631.40
2023-02-07T15:57:36.586Z,100633.46
2023-02-07T16:00:22.276Z,100634.09
2023-02-07T16:02:58.434Z,100634.56
2023-02-07T16:05:38.207Z,100636.15
2023-02-07T16:09:06.650Z,100637.30
2023-02-07T16:11:37.857Z,100638.23
2023-02-07T16:14:11.959Z,100641.88
2023-02-07T16:16:46.969Z,100642.70
2023-02-07T16:19:17.357Z,100645.11
2023-02-07T16:21:50.647Z,100648.82
2023-02-07T16:24:22.961Z,100646.98
2023-02-07T16:26:51.164Z,100658.29
2023-02-07T16:29:26.382Z,100663.83
2023-02-07T16:31:55.592Z,100669.93
2023-02-07T16:34:23.889Z,100676.80
2023-02-07T16:36:54.318Z,100672.11
2023-02-07T16:39:23.496Z,100673.90
2023-02-07T16:41:56.002Z,100675.37
2023-02-07T16:44:25.982Z,100676.96
2023-02-07T16:46:54.182Z,100679.08
2023-02-07T16:49:24.508Z,100675.81
2023-02-07T16:51:53.073Z,100677.52
2023-02-07T16:54:21.437Z,100679.91
2023-02-07T16:56:53.719Z,100678.22
2023-02-07T16:59:41.629Z,100682.34
2023-02-07T17:02:14.932Z,100681.18
2023-02-07T17:04:43.062Z,100681.73
2023-02-07T17:07:12.030Z,100681.78
2023-02-07T17:09:40.165Z,100686.77
2023-02-07T17:12:09.525Z,100693.01
2023-02-07T17:14:38.290Z,100691.35
2023-02-07T17:17:06.487Z,100694.02
2023-02-07T17:19:34.468Z,100694.80
2023-02-07T17:22:02.788Z,100697.85
2023-02-07T17:24:31.755Z,100695.44
2023-02-07T17:27:00.000Z,100693.13
2023-02-07T17:29:28.095Z,100698.31
2023-02-07T17:31:57.241Z,100697.14
2023-02-07T17:34:25.536Z,100696.91
2023-02-07T17:36:53.727Z,100697.40
2023-02-07T17:39:22.145Z,100697.10
2023-02-07T17:41:50.542Z,100696.94
2023-02-07T17:44:29.609Z,100689.39
2023-02-07T17:47:02.943Z,100696.55
2023-02-07T17:49:30.936Z,100700.48
2023-02-07T17:51:58.905Z,100698.20
2023-02-07T17:54:26.737Z,100705.77
2023-02-07T17:56:55.756Z,100704.54
2023-02-07T17:59:25.649Z,100702.97
2023-02-07T18:01:53.665Z,100706.19
2023-02-07T18:04:22.188Z,100711.13
2023-02-07T18:06:50.355Z,100711.08
2023-02-07T18:09:19.602Z,100713.70
2023-02-07T18:11:48.841Z,100716.95
2023-02-07T18:14:17.050Z,100719.41
2023-02-07T18:16:45.282Z,100721.70
2023-02-07T18:19:17.909Z,100717.73
2023-02-07T18:21:46.259Z,100715.87
2023-02-07T18:24:14.382Z,100716.92
2023-02-07T18:26:42.540Z,100720.25
2023-02-07T18:29:30.563Z,100722.02
2023-02-07T18:32:05.575Z,100721.25
2023-02-07T18:34:41.176Z,100721.98
2023-02-07T18:37:09.396Z,100719.56
2023-02-07T18:39:37.322Z,100722.20
2023-02-07T18:42:05.383Z,100724.94
2023-02-07T18:44:33.418Z,100729.57
2023-02-07T18:47:01.399Z,100738.27
2023-02-07T18:49:29.299Z,100739.33
2023-02-07T18:51:57.206Z,100741.48
2023-02-07T18:54:26.327Z,100744.25
2023-02-07T18:56:56.113Z,100745.54
2023-02-07T18:59:25.965Z,100745.23
2023-02-07T19:01:54.446Z,100747.31
2023-02-07T19:04:23.528Z,100749.08
2023-02-07T19:06:52.321Z,100746.78
2023-02-07T19:09:22.809Z,100747.55
2023-02-07T19:11:51.956Z,100742.61
2023-02-07T19:14:23.140Z,100742.69
2023-02-07T19:16:54.121Z,100742.35
2023-02-07T19:19:24.698Z,100743.61
2023-02-07T19:21:52.790Z,100741.71
2023-02-07T19:24:21.781Z,100743.87
2023-02-07T19:26:54.011Z,100747.17
2023-02-07T19:29:32.578Z,100742.31
2023-02-07T19:32:05.238Z,100750.21
2023-02-07T19:34:33.917Z,100749.02
2023-02-07T19:37:02.608Z,100738.66
2023-02-07T19:39:31.631Z,100749.45
2023-02-07T19:42:00.733Z,100749.64
2023-02-07T19:44:28.806Z,100751.19
2023-02-07T19:46:56.783Z,100756.45
2023-02-07T19:49:24.764Z,100754.45
2023-02-07T19:51:52.786Z,100755.20
2023-02-07T19:54:21.302Z,100757.80
2023-02-07T19:56:50.290Z,100758.16
2023-02-07T19:59:19.093Z,100757.85
2023-02-07T20:01:46.950Z,100756.66
2023-02-07T20:04:15.147Z,100760.32
2023-02-07T20:06:43.168Z,100766.02
2023-02-07T20:09:13.245Z,100771.09
2023-02-07T20:11:41.306Z,100776.91
2023-02-07T20:14:09.952Z,100781.41
2023-02-07T20:16:39.066Z,100778.84
2023-02-07T20:19:07.647Z,100775.55
2023-02-07T20:21:55.627Z,100776.30
2023-02-07T20:24:23.555Z,100775.71
2023-02-07T20:26:51.552Z,100777.14
2023-02-07T20:29:20.470Z,100777.52
2023-02-07T20:31:49.396Z,100783.00
2023-02-07T20:34:17.468Z,100786.77
2023-02-07T20:36:46.634Z,100786.29
2023-02-07T20:39:20.984Z,100784.59
2023-02-07T20:41:50.168Z,100784.45
2023-02-07T20:44:23.445Z,100783.80
2023-02-07T20:46:51.845Z,100786.58
2023-02-07T20:49:26.202Z,100780.73
2023-02-07T20:51:57.545Z,100782.16
2023-02-07T20:54:27.644Z,100782.80
2023-02-07T20:56:57.305Z,100786.64
2023-02-07T20:59:26.786Z,100791.92
2023-02-07T21:02:14.602Z,100793.11
2023-02-07T21:04:43.044Z,100796.75
2023-02-07T21:07:11.262Z,100796.52
2023-02-07T21:09:40.759Z,100796.79
2023-02-07T21:12:08.978Z,100797.36
2023-02-07T21:14:37.140Z,100799.23
2023-02-07T21:17:06.648Z,100801.95
2023-02-07T21:19:36.619Z,100799.31
2023-02-07T21:22:05.342Z,100799.61
2023-02-07T21:24:33.774Z,100795.79
2023-02-07T21:27:03.367Z,100794.61
2023-02-07T21:29:31.514Z,100797.48
2023-02-07T21:32:00.203Z,100803.58
2023-02-07T21:34:28.486Z,100801.64
2023-02-07T21:36:57.991Z,100802.75
2023-02-07T21:39:26.346Z,100805.05
2023-02-07T21:41:54.468Z,100801.33
2023-02-07T21:44:22.547Z,100807.13
2023-02-07T21:46:51.460Z,100805.48
2023-02-07T21:49:21.101Z,100804.42
2023-02-07T21:51:51.241Z,100811.25
2023-02-07T21:54:19.334Z,100808.17
2023-02-07T21:56:50.083Z,100812.96
2023-02-07T21:59:20.212Z,100812.76
2023-02-07T22:01:48.911Z,100812.31
2023-02-07T22:04:17.007Z,100812.09
2023-02-07T22:06:47.303Z,100811.76
2023-02-07T22:09:17.803Z,100805.36
2023-02-07T22:11:45.963Z,100806.79
2023-02-07T22:14:15.335Z,100808.17
2023-02-07T22:16:43.804Z,100812.46
2023-02-07T22:19:14.395Z,100811.74
2023-02-07T22:21:42.369Z,100812.55
2023-02-07T22:24:12.979Z,100815.78
2023-02-07T22:26:41.647Z,100817.23
2023-02-07T22:29:10.237Z,100813.44
2023-02-07T22:31:40.456Z,100817.64
2023-02-07T22:34:11.834Z,100816.30
2023-02-07T22:36:43.257Z,100813.17
2023-02-07T22:39:13.987Z,100814.73
2023-02-07T22:41:42.267Z,100820.71
2023-02-07T22:44:10.208Z,100818.69
2023-02-07T22:46:38.437Z,100816.47
2023-02-07T22:49:06.604Z,100817.03
2023-02-07T22:51:37.351Z,100818.95
2023-02-07T22:54:08.214Z,100816.75
2023-02-07T22:56:37.962Z,100815.48
2023-02-07T22:59:06.768Z,100813.36
2023-02-07T23:01:39.160Z,100813.98
2023-02-07T23:04:11.995Z,100817.66
2023-02-07T23:06:40.005Z,100816.84
2023-02-07T23:09:08.375Z,100812.66
2023-02-07T23:11:37.184Z,100810.99
2023-02-07T23:14:05.998Z,100811.93
2023-02-07T23:16:35.145Z,100813.75
2023-02-07T23:19:08.244Z,100811.77
2023-02-07T23:21:36.226Z,100814.05
2023-02-07T23:24:04.863Z,100806.98
2023-02-07T23:27:12.948Z,100810.70
2023-02-07T23:29:41.238Z,100815.26
2023-02-07T23:32:09.348Z,100814.16
2023-02-07T23:34:37.342Z,100808.23
2023-02-07T23:37:05.318Z,100809.71
2023-02-07T23:39:33.395Z,100811.32
2023-02-07T23:42:01.483Z,100812.22
2023-02-07T23:44:29.712Z,100816.11
2023-02-07T23:46:57.742Z,100816.05
2023-02-07T23:49:25.892Z,100816.77
2023-02-07T23:51:53.984Z,100810.08
2023-02-07T23:54:22.134Z,100813.95
2023-02-07T23:56:50.264Z,100811.10
2023-02-07T23:59:18.374Z,100812.10
